sensor_id;sensor_type;location;lat;lon;timestamp;P1;durP1;ratioP1;P2;durP2;ratioP2
7917;SDS011;4004;42.624;23.386;2022-12-07T00:01:04;49.97;;;31.10;;
7917;SDS011;4004;42.624;23.386;2022-12-07T00:03:33;47.63;;;31.40;;
7917;SDS011;4004;42.624;23.386;2022-12-07T00:06:00;48.50;;;32.23;;
7917;SDS011;4004;42.624;23.386;2022-12-07T00:08:27;51.80;;;31.20;;
7917;SDS011;4004;42.624;23.386;2022-12-07T00:10:54;43.97;;;30.20;;
7917;SDS011;4004;42.624;23.386;2022-12-07T00:13:21;47.70;;;30.13;;
7917;SDS011;4004;42.624;23.386;2022-12-07T00:15:47;43.97;;;28.93;;
7917;SDS011;4004;42.624;23.386;2022-12-07T00:18:14;42.73;;;26.70;;
7917;SDS011;4004;42.624;23.386;2022-12-07T00:20:42;40.83;;;26.80;;
7917;SDS011;4004;42.624;23.386;2022-12-07T00:23:09;36.33;;;24.47;;
7917;SDS011;4004;42.624;23.386;2022-12-07T00:25:36;35.73;;;22.90;;
7917;SDS011;4004;42.624;23.386;2022-12-07T00:28:03;32.57;;;21.03;;
7917;SDS011;4004;42.624;23.386;2022-12-07T00:30:30;32.13;;;20.80;;
7917;SDS011;4004;42.624;23.386;2022-12-07T00:32:56;32.67;;;21.63;;
7917;SDS011;4004;42.624;23.386;2022-12-07T00:35:23;29.80;;;21.47;;
7917;SDS011;4004;42.624;23.386;2022-12-07T00:37:51;27.13;;;18.97;;
7917;SDS011;4004;42.624;23.386;2022-12-07T00:40:19;30.43;;;18.60;;
7917;SDS011;4004;42.624;23.386;2022-12-07T00:42:46;29.87;;;20.23;;
7917;SDS011;4004;42.624;23.386;2022-12-07T00:45:12;30.30;;;18.37;;
7917;SDS011;4004;42.624;23.386;2022-12-07T00:47:39;31.00;;;19.07;;
7917;SDS011;4004;42.624;23.386;2022-12-07T00:50:06;28.47;;;18.87;;
7917;SDS011;4004;42.624;23.386;2022-12-07T00:52:33;32.53;;;19.17;;
7917;SDS011;4004;42.624;23.386;2022-12-07T00:55:01;28.27;;;19.33;;
7917;SDS011;4004;42.624;23.386;2022-12-07T00:57:29;27.10;;;18.50;;
7917;SDS011;4004;42.624;23.386;2022-12-07T00:59:57;27.70;;;18.10;;
7917;SDS011;4004;42.624;23.386;2022-12-07T01:02:25;32.10;;;17.73;;
7917;SDS011;4004;42.624;23.386;2022-12-07T01:04:52;23.43;;;16.70;;
7917;SDS011;4004;42.624;23.386;2022-12-07T01:07:18;22.57;;;16.27;;
7917;SDS011;4004;42.624;23.386;2022-12-07T01:09:45;25.87;;;16.90;;
7917;SDS011;4004;42.624;23.386;2022-12-07T01:12:13;25.03;;;16.47;;
7917;SDS011;4004;42.624;23.386;2022-12-07T01:14:41;28.10;;;17.73;;
7917;SDS011;4004;42.624;23.386;2022-12-07T01:17:08;31.00;;;21.00;;
7917;SDS011;4004;42.624;23.386;2022-12-07T01:19:35;30.00;;;21.47;;
7917;SDS011;4004;42.624;23.386;2022-12-07T01:22:02;34.50;;;20.73;;
7917;SDS011;4004;42.624;23.386;2022-12-07T01:24:29;32.87;;;23.03;;
7917;SDS011;4004;42.624;23.386;2022-12-07T01:26:56;37.53;;;21.57;;
7917;SDS011;4004;42.624;23.386;2022-12-07T01:29:24;33.40;;;22.67;;
7917;SDS011;4004;42.624;23.386;2022-12-07T01:31:50;33.17;;;22.83;;
7917;SDS011;4004;42.624;23.386;2022-12-07T01:34:17;36.30;;;21.37;;
7917;SDS011;4004;42.624;23.386;2022-12-07T01:36:44;32.13;;;19.97;;
7917;SDS011;4004;42.624;23.386;2022-12-07T01:39:11;26.20;;;18.57;;
7917;SDS011;4004;42.624;23.386;2022-12-07T01:41:39;29.43;;;17.13;;
7917;SDS011;4004;42.624;23.386;2022-12-07T01:44:15;29.20;;;18.20;;
7917;SDS011;4004;42.624;23.386;2022-12-07T01:46:46;25.17;;;16.80;;
7917;SDS011;4004;42.624;23.386;2022-12-07T01:49:21;31.13;;;21.67;;
7917;SDS011;4004;42.624;23.386;2022-12-07T01:51:54;31.90;;;22.07;;
7917;SDS011;4004;42.624;23.386;2022-12-07T01:54:26;42.87;;;26.63;;
7917;SDS011;4004;42.624;23.386;2022-12-07T01:56:54;38.60;;;27.57;;
7917;SDS011;4004;42.624;23.386;2022-12-07T01:59:23;49.80;;;27.73;;
7917;SDS011;4004;42.624;23.386;2022-12-07T02:01:53;40.67;;;26.80;;
7917;SDS011;4004;42.624;23.386;2022-12-07T02:04:22;41.20;;;26.70;;
7917;SDS011;4004;42.624;23.386;2022-12-07T02:06:49;41.97;;;28.10;;
7917;SDS011;4004;42.624;23.386;2022-12-07T02:09:16;41.83;;;28.73;;
7917;SDS011;4004;42.624;23.386;2022-12-07T02:11:43;42.10;;;28.43;;
7917;SDS011;4004;42.624;23.386;2022-12-07T02:14:10;51.13;;;28.93;;
7917;SDS011;4004;42.624;23.386;2022-12-07T02:16:39;42.83;;;28.93;;
7917;SDS011;4004;42.624;23.386;2022-12-07T02:22:26;47.23;;;27.90;;
7917;SDS011;4004;42.624;23.386;2022-12-07T02:25:07;43.30;;;28.27;;
7917;SDS011;4004;42.624;23.386;2022-12-07T02:27:43;51.10;;;29.23;;
7917;SDS011;4004;42.624;23.386;2022-12-07T02:30:14;43.97;;;28.47;;
7917;SDS011;4004;42.624;23.386;2022-12-07T02:32:44;43.47;;;27.93;;
7917;SDS011;4004;42.624;23.386;2022-12-07T02:35:17;41.83;;;28.13;;
7917;SDS011;4004;42.624;23.386;2022-12-07T02:37:52;40.43;;;26.10;;
7917;SDS011;4004;42.624;23.386;2022-12-07T02:40:29;43.20;;;27.10;;
7917;SDS011;4004;42.624;23.386;2022-12-07T02:43:01;50.07;;;27.87;;
7917;SDS011;4004;42.624;23.386;2022-12-07T02:45:33;45.00;;;28.20;;
7917;SDS011;4004;42.624;23.386;2022-12-07T02:48:01;48.13;;;27.53;;
7917;SDS011;4004;42.624;23.386;2022-12-07T02:50:29;50.23;;;29.70;;
7917;SDS011;4004;42.624;23.386;2022-12-07T02:52:56;42.00;;;28.40;;
7917;SDS011;4004;42.624;23.386;2022-12-07T02:55:25;42.40;;;27.80;;
7917;SDS011;4004;42.624;23.386;2022-12-07T02:58:00;39.77;;;26.37;;
7917;SDS011;4004;42.624;23.386;2022-12-07T03:00:43;44.87;;;28.40;;
7917;SDS011;4004;42.624;23.386;2022-12-07T03:03:17;51.13;;;27.87;;
7917;SDS011;4004;42.624;23.386;2022-12-07T03:08:46;36.57;;;25.70;;
7917;SDS011;4004;42.624;23.386;2022-12-07T03:11:21;41.20;;;26.43;;
7917;SDS011;4004;42.624;23.386;2022-12-07T03:13:55;49.70;;;27.80;;
7917;SDS011;4004;42.624;23.386;2022-12-07T03:16:30;38.50;;;25.90;;
7917;SDS011;4004;42.624;23.386;2022-12-07T03:19:02;44.30;;;26.83;;
7917;SDS011;4004;42.624;23.386;2022-12-07T03:21:32;44.80;;;27.20;;
7917;SDS011;4004;42.624;23.386;2022-12-07T03:24:03;36.80;;;25.10;;
7917;SDS011;4004;42.624;23.386;2022-12-07T03:26:36;38.57;;;26.63;;
7917;SDS011;4004;42.624;23.386;2022-12-07T03:29:08;39.70;;;25.03;;
7917;SDS011;4004;42.624;23.386;2022-12-07T03:31:41;34.67;;;23.20;;
7917;SDS011;4004;42.624;23.386;2022-12-07T03:34:14;36.30;;;23.47;;
7917;SDS011;4004;42.624;23.386;2022-12-07T03:36:46;40.87;;;24.27;;
7917;SDS011;4004;42.624;23.386;2022-12-07T03:39:17;35.83;;;24.20;;
7917;SDS011;4004;42.624;23.386;2022-12-07T03:41:51;35.17;;;23.13;;
7917;SDS011;4004;42.624;23.386;2022-12-07T03:44:19;35.37;;;24.00;;
7917;SDS011;4004;42.624;23.386;2022-12-07T03:46:50;28.67;;;22.17;;
7917;SDS011;4004;42.624;23.386;2022-12-07T03:49:24;37.03;;;24.00;;
7917;SDS011;4004;42.624;23.386;2022-12-07T03:51:54;40.50;;;25.17;;
7917;SDS011;4004;42.624;23.386;2022-12-07T03:54:28;40.70;;;23.87;;
7917;SDS011;4004;42.624;23.386;2022-12-07T03:56:58;46.43;;;24.93;;
7917;SDS011;4004;42.624;23.386;2022-12-07T03:59:25;36.90;;;24.30;;
7917;SDS011;4004;42.624;23.386;2022-12-07T04:01:55;38.13;;;23.70;;
7917;SDS011;4004;42.624;23.386;2022-12-07T04:04:27;33.53;;;23.50;;
7917;SDS011;4004;42.624;23.386;2022-12-07T04:06:54;37.13;;;23.70;;
7917;SDS011;4004;42.624;23.386;2022-12-07T04:09:21;34.83;;;22.80;;
7917;SDS011;4004;42.624;23.386;2022-12-07T04:11:47;33.87;;;23.60;;
7917;SDS011;4004;42.624;23.386;2022-12-07T04:14:15;46.30;;;24.23;;
7917;SDS011;4004;42.624;23.386;2022-12-07T04:16:44;40.07;;;23.13;;
7917;SDS011;4004;42.624;23.386;2022-12-07T04:19:13;40.50;;;23.00;;
7917;SDS011;4004;42.624;23.386;2022-12-07T04:21:39;31.70;;;21.53;;
7917;SDS011;4004;42.624;23.386;2022-12-07T04:24:06;33.83;;;22.97;;
7917;SDS011;4004;42.624;23.386;2022-12-07T04:26:33;35.73;;;22.80;;
7917;SDS011;4004;42.624;23.386;2022-12-07T04:29:00;35.33;;;23.93;;
7917;SDS011;4004;42.624;23.386;2022-12-07T04:31:27;35.63;;;24.13;;
7917;SDS011;4004;42.624;23.386;2022-12-07T04:33:53;35.73;;;25.30;;
7917;SDS011;4004;42.624;23.386;2022-12-07T04:36:21;37.97;;;24.00;;
7917;SDS011;4004;42.624;23.386;2022-12-07T04:38:48;40.13;;;24.43;;
7917;SDS011;4004;42.624;23.386;2022-12-07T04:41:15;35.93;;;24.17;;
7917;SDS011;4004;42.624;23.386;2022-12-07T04:43:42;35.20;;;24.00;;
7917;SDS011;4004;42.624;23.386;2022-12-07T04:46:08;36.70;;;23.17;;
7917;SDS011;4004;42.624;23.386;2022-12-07T04:48:35;35.33;;;23.57;;
7917;SDS011;4004;42.624;23.386;2022-12-07T04:51:02;41.23;;;25.03;;
7917;SDS011;4004;42.624;23.386;2022-12-07T04:53:31;38.37;;;25.90;;
7917;SDS011;4004;42.624;23.386;2022-12-07T04:55:57;41.37;;;23.43;;
7917;SDS011;4004;42.624;23.386;2022-12-07T04:58:26;36.63;;;23.37;;
7917;SDS011;4004;42.624;23.386;2022-12-07T05:00:53;36.70;;;24.97;;
7917;SDS011;4004;42.624;23.386;2022-12-07T05:03:20;32.67;;;22.53;;
7917;SDS011;4004;42.624;23.386;2022-12-07T05:05:47;37.47;;;22.83;;
7917;SDS011;4004;42.624;23.386;2022-12-07T05:08:14;38.47;;;23.73;;
7917;SDS011;4004;42.624;23.386;2022-12-07T05:10:42;38.57;;;21.67;;
7917;SDS011;4004;42.624;23.386;2022-12-07T05:13:08;37.50;;;22.30;;
7917;SDS011;4004;42.624;23.386;2022-12-07T05:15:35;38.47;;;24.43;;
7917;SDS011;4004;42.624;23.386;2022-12-07T05:18:02;35.30;;;22.63;;
7917;SDS011;4004;42.624;23.386;2022-12-07T05:20:29;37.90;;;24.43;;
7917;SDS011;4004;42.624;23.386;2022-12-07T05:22:56;38.87;;;25.33;;
7917;SDS011;4004;42.624;23.386;2022-12-07T05:25:24;33.80;;;22.93;;
7917;SDS011;4004;42.624;23.386;2022-12-07T05:27:53;34.53;;;23.20;;
7917;SDS011;4004;42.624;23.386;2022-12-07T05:30:21;36.60;;;24.50;;
7917;SDS011;4004;42.624;23.386;2022-12-07T05:32:48;36.47;;;25.33;;
7917;SDS011;4004;42.624;23.386;2022-12-07T05:35:15;40.13;;;25.93;;
7917;SDS011;4004;42.624;23.386;2022-12-07T05:37:42;38.53;;;25.77;;
7917;SDS011;4004;42.624;23.386;2022-12-07T05:40:09;42.13;;;26.27;;
7917;SDS011;4004;42.624;23.386;2022-12-07T05:42:37;37.73;;;24.20;;
7917;SDS011;4004;42.624;23.386;2022-12-07T05:45:06;38.60;;;26.13;;
7917;SDS011;4004;42.624;23.386;2022-12-07T05:47:33;37.23;;;24.30;;
7917;SDS011;4004;42.624;23.386;2022-12-07T05:50:00;41.27;;;24.33;;
7917;SDS011;4004;42.624;23.386;2022-12-07T05:52:27;39.47;;;24.90;;
7917;SDS011;4004;42.624;23.386;2022-12-07T05:54:54;38.37;;;23.53;;
7917;SDS011;4004;42.624;23.386;2022-12-07T05:57:21;40.97;;;26.70;;
7917;SDS011;4004;42.624;23.386;2022-12-07T05:59:48;41.43;;;30.80;;
7917;SDS011;4004;42.624;23.386;2022-12-07T06:02:15;45.63;;;25.73;;
7917;SDS011;4004;42.624;23.386;2022-12-07T06:04:43;36.83;;;23.67;;
7917;SDS011;4004;42.624;23.386;2022-12-07T06:07:12;40.37;;;23.50;;
7917;SDS011;4004;42.624;23.386;2022-12-07T06:09:41;35.60;;;23.80;;
7917;SDS011;4004;42.624;23.386;2022-12-07T06:12:09;37.73;;;23.57;;
7917;SDS011;4004;42.624;23.386;2022-12-07T06:14:53;36.23;;;23.87;;
7917;SDS011;4004;42.624;23.386;2022-12-07T06:17:21;31.60;;;22.77;;
7917;SDS011;4004;42.624;23.386;2022-12-07T06:19:48;31.63;;;22.20;;
7917;SDS011;4004;42.624;23.386;2022-12-07T06:22:15;34.60;;;22.97;;
7917;SDS011;4004;42.624;23.386;2022-12-07T06:24:42;41.13;;;23.47;;
7917;SDS011;4004;42.624;23.386;2022-12-07T06:27:09;36.17;;;24.67;;
7917;SDS011;4004;42.624;23.386;2022-12-07T06:29:36;39.90;;;22.63;;
7917;SDS011;4004;42.624;23.386;2022-12-07T06:32:03;35.10;;;23.83;;
7917;SDS011;4004;42.624;23.386;2022-12-07T06:34:32;34.13;;;23.80;;
7917;SDS011;4004;42.624;23.386;2022-12-07T06:36:59;39.40;;;26.20;;
7917;SDS011;4004;42.624;23.386;2022-12-07T06:39:26;46.63;;;28.50;;
7917;SDS011;4004;42.624;23.386;2022-12-07T06:41:54;40.07;;;24.87;;
7917;SDS011;4004;42.624;23.386;2022-12-07T06:44:21;38.70;;;24.80;;
7917;SDS011;4004;42.624;23.386;2022-12-07T06:46:48;40.53;;;25.83;;
7917;SDS011;4004;42.624;23.386;2022-12-07T06:49:16;40.70;;;25.93;;
7917;SDS011;4004;42.624;23.386;2022-12-07T06:51:44;40.67;;;26.20;;
7917;SDS011;4004;42.624;23.386;2022-12-07T06:54:12;38.90;;;24.37;;
7917;SDS011;4004;42.624;23.386;2022-12-07T06:56:40;54.40;;;29.17;;
7917;SDS011;4004;42.624;23.386;2022-12-07T06:59:08;44.33;;;27.83;;
7917;SDS011;4004;42.624;23.386;2022-12-07T07:01:35;39.50;;;27.10;;
7917;SDS011;4004;42.624;23.386;2022-12-07T07:04:02;41.53;;;27.10;;
7917;SDS011;4004;42.624;23.386;2022-12-07T07:06:29;46.97;;;26.03;;
7917;SDS011;4004;42.624;23.386;2022-12-07T07:08:58;59.83;;;28.60;;
7917;SDS011;4004;42.624;23.386;2022-12-07T07:11:24;39.10;;;26.57;;
7917;SDS011;4004;42.624;23.386;2022-12-07T07:13:51;43.40;;;27.17;;
7917;SDS011;4004;42.624;23.386;2022-12-07T07:16:18;42.97;;;26.13;;
7917;SDS011;4004;42.624;23.386;2022-12-07T07:18:45;42.63;;;27.43;;
7917;SDS011;4004;42.624;23.386;2022-12-07T07:21:12;41.17;;;27.67;;
7917;SDS011;4004;42.624;23.386;2022-12-07T07:23:39;52.47;;;27.77;;
7917;SDS011;4004;42.624;23.386;2022-12-07T07:26:07;42.77;;;29.40;;
7917;SDS011;4004;42.624;23.386;2022-12-07T07:28:33;43.90;;;27.87;;
7917;SDS011;4004;42.624;23.386;2022-12-07T07:31:00;47.63;;;26.90;;
7917;SDS011;4004;42.624;23.386;2022-12-07T07:33:27;44.47;;;26.87;;
7917;SDS011;4004;42.624;23.386;2022-12-07T07:35:53;41.17;;;26.37;;
7917;SDS011;4004;42.624;23.386;2022-12-07T07:38:20;46.80;;;25.23;;
7917;SDS011;4004;42.624;23.386;2022-12-07T07:40:47;43.90;;;28.00;;
7917;SDS011;4004;42.624;23.386;2022-12-07T07:43:15;40.23;;;25.37;;
7917;SDS011;4004;42.624;23.386;2022-12-07T07:45:42;46.50;;;26.80;;
7917;SDS011;4004;42.624;23.386;2022-12-07T07:48:08;49.33;;;28.03;;
7917;SDS011;4004;42.624;23.386;2022-12-07T07:50:35;44.97;;;26.97;;
7917;SDS011;4004;42.624;23.386;2022-12-07T07:53:02;43.30;;;26.00;;
7917;SDS011;4004;42.624;23.386;2022-12-07T07:55:29;41.27;;;26.43;;
7917;SDS011;4004;42.624;23.386;2022-12-07T07:57:55;52.70;;;26.47;;
7917;SDS011;4004;42.624;23.386;2022-12-07T08:00:24;46.27;;;27.10;;
7917;SDS011;4004;42.624;23.386;2022-12-07T08:02:51;43.37;;;26.03;;
7917;SDS011;4004;42.624;23.386;2022-12-07T08:05:17;41.03;;;26.00;;
7917;SDS011;4004;42.624;23.386;2022-12-07T08:07:44;40.17;;;23.80;;
7917;SDS011;4004;42.624;23.386;2022-12-07T08:10:11;39.43;;;25.03;;
7917;SDS011;4004;42.624;23.386;2022-12-07T08:12:40;38.40;;;25.63;;
7917;SDS011;4004;42.624;23.386;2022-12-07T08:15:21;43.70;;;25.93;;
7917;SDS011;4004;42.624;23.386;2022-12-07T08:17:49;34.60;;;25.53;;
7917;SDS011;4004;42.624;23.386;2022-12-07T08:20:16;41.37;;;25.33;;
7917;SDS011;4004;42.624;23.386;2022-12-07T08:22:43;37.27;;;26.00;;
7917;SDS011;4004;42.624;23.386;2022-12-07T08:25:09;40.60;;;24.90;;
7917;SDS011;4004;42.624;23.386;2022-12-07T08:27:36;35.50;;;25.37;;
7917;SDS011;4004;42.624;23.386;2022-12-07T08:30:03;36.17;;;22.77;;
7917;SDS011;4004;42.624;23.386;2022-12-07T08:32:31;41.93;;;24.77;;
7917;SDS011;4004;42.624;23.386;2022-12-07T08:34:59;47.47;;;26.37;;
7917;SDS011;4004;42.624;23.386;2022-12-07T08:37:26;42.03;;;27.00;;
7917;SDS011;4004;42.624;23.386;2022-12-07T08:39:53;42.37;;;26.10;;
7917;SDS011;4004;42.624;23.386;2022-12-07T08:42:20;44.63;;;26.37;;
7917;SDS011;4004;42.624;23.386;2022-12-07T08:44:52;38.70;;;26.53;;
7917;SDS011;4004;42.624;23.386;2022-12-07T08:47:19;42.33;;;25.03;;
7917;SDS011;4004;42.624;23.386;2022-12-07T08:49:46;42.20;;;26.23;;
7917;SDS011;4004;42.624;23.386;2022-12-07T08:52:17;41.93;;;26.17;;
7917;SDS011;4004;42.624;23.386;2022-12-07T08:54:44;46.60;;;26.30;;
7917;SDS011;4004;42.624;23.386;2022-12-07T08:57:11;35.57;;;25.53;;
7917;SDS011;4004;42.624;23.386;2022-12-07T08:59:38;46.33;;;25.03;;
7917;SDS011;4004;42.624;23.386;2022-12-07T09:02:05;47.00;;;25.67;;
7917;SDS011;4004;42.624;23.386;2022-12-07T09:04:32;42.37;;;25.83;;
7917;SDS011;4004;42.624;23.386;2022-12-07T09:06:59;47.57;;;25.57;;
7917;SDS011;4004;42.624;23.386;2022-12-07T09:09:27;39.33;;;25.73;;
7917;SDS011;4004;42.624;23.386;2022-12-07T09:11:54;43.80;;;25.07;;
7917;SDS011;4004;42.624;23.386;2022-12-07T09:14:21;49.30;;;25.13;;
7917;SDS011;4004;42.624;23.386;2022-12-07T09:16:48;46.53;;;25.27;;
7917;SDS011;4004;42.624;23.386;2022-12-07T09:19:15;44.13;;;24.47;;
7917;SDS011;4004;42.624;23.386;2022-12-07T09:21:42;39.83;;;23.47;;
7917;SDS011;4004;42.624;23.386;2022-12-07T09:24:08;40.70;;;24.23;;
7917;SDS011;4004;42.624;23.386;2022-12-07T09:26:37;32.83;;;22.30;;
7917;SDS011;4004;42.624;23.386;2022-12-07T09:29:05;32.03;;;22.80;;
7917;SDS011;4004;42.624;23.386;2022-12-07T09:31:32;43.47;;;23.90;;
7917;SDS011;4004;42.624;23.386;2022-12-07T09:33:59;36.77;;;23.13;;
7917;SDS011;4004;42.624;23.386;2022-12-07T09:36:27;35.27;;;23.77;;
7917;SDS011;4004;42.624;23.386;2022-12-07T09:38:54;38.67;;;23.67;;
7917;SDS011;4004;42.624;23.386;2022-12-07T09:41:21;42.63;;;23.53;;
7917;SDS011;4004;42.624;23.386;2022-12-07T09:43:52;37.83;;;23.67;;
7917;SDS011;4004;42.624;23.386;2022-12-07T09:46:21;41.63;;;24.33;;
7917;SDS011;4004;42.624;23.386;2022-12-07T09:48:48;42.20;;;24.90;;
7917;SDS011;4004;42.624;23.386;2022-12-07T09:51:17;38.87;;;24.40;;
7917;SDS011;4004;42.624;23.386;2022-12-07T09:53:45;35.37;;;21.70;;
7917;SDS011;4004;42.624;23.386;2022-12-07T09:56:13;44.47;;;23.40;;
7917;SDS011;4004;42.624;23.386;2022-12-07T09:58:43;39.30;;;22.40;;
7917;SDS011;4004;42.624;23.386;2022-12-07T10:01:13;35.20;;;22.50;;
7917;SDS011;4004;42.624;23.386;2022-12-07T10:03:42;36.50;;;22.07;;
7917;SDS011;4004;42.624;23.386;2022-12-07T10:06:14;40.07;;;22.47;;
7917;SDS011;4004;42.624;23.386;2022-12-07T10:08:41;42.10;;;25.03;;
7917;SDS011;4004;42.624;23.386;2022-12-07T10:11:08;43.00;;;23.13;;
7917;SDS011;4004;42.624;23.386;2022-12-07T10:13:37;31.60;;;22.33;;
7917;SDS011;4004;42.624;23.386;2022-12-07T10:16:05;37.67;;;23.23;;
7917;SDS011;4004;42.624;23.386;2022-12-07T10:18:34;34.47;;;23.17;;
7917;SDS011;4004;42.624;23.386;2022-12-07T10:21:04;26.93;;;21.07;;
7917;SDS011;4004;42.624;23.386;2022-12-07T10:23:40;32.27;;;20.50;;
7917;SDS011;4004;42.624;23.386;2022-12-07T10:26:21;25.27;;;16.53;;
7917;SDS011;4004;42.624;23.386;2022-12-07T10:28:53;24.43;;;15.47;;
7917;SDS011;4004;42.624;23.386;2022-12-07T10:31:22;30.63;;;17.93;;
7917;SDS011;4004;42.624;23.386;2022-12-07T10:33:52;37.70;;;20.03;;
7917;SDS011;4004;42.624;23.386;2022-12-07T10:36:21;34.50;;;20.47;;
7917;SDS011;4004;42.624;23.386;2022-12-07T10:38:51;31.63;;;20.60;;
7917;SDS011;4004;42.624;23.386;2022-12-07T10:41:19;35.10;;;18.77;;
7917;SDS011;4004;42.624;23.386;2022-12-07T10:43:47;35.43;;;19.23;;
7917;SDS011;4004;42.624;23.386;2022-12-07T10:49:33;32.30;;;18.00;;
7917;SDS011;4004;42.624;23.386;2022-12-07T10:52:21;33.20;;;18.47;;
7917;SDS011;4004;42.624;23.386;2022-12-07T10:55:02;29.70;;;19.57;;
7917;SDS011;4004;42.624;23.386;2022-12-07T10:57:42;39.40;;;19.90;;
7917;SDS011;4004;42.624;23.386;2022-12-07T11:00:17;34.60;;;19.43;;
7917;SDS011;4004;42.624;23.386;2022-12-07T11:02:58;36.13;;;19.60;;
7917;SDS011;4004;42.624;23.386;2022-12-07T11:05:48;32.60;;;19.60;;
7917;SDS011;4004;42.624;23.386;2022-12-07T11:08:21;34.77;;;21.00;;
7917;SDS011;4004;42.624;23.386;2022-12-07T11:10:59;38.37;;;20.53;;
7917;SDS011;4004;42.624;23.386;2022-12-07T11:13:34;31.13;;;20.07;;
7917;SDS011;4004;42.624;23.386;2022-12-07T11:16:15;27.70;;;19.30;;
7917;SDS011;4004;42.624;23.386;2022-12-07T11:18:58;31.70;;;21.77;;
7917;SDS011;4004;42.624;23.386;2022-12-07T11:21:35;32.37;;;22.03;;
7917;SDS011;4004;42.624;23.386;2022-12-07T11:24:13;33.03;;;21.47;;
7917;SDS011;4004;42.624;23.386;2022-12-07T11:26:49;31.03;;;21.57;;
7917;SDS011;4004;42.624;23.386;2022-12-07T11:29:30;36.03;;;22.33;;
7917;SDS011;4004;42.624;23.386;2022-12-07T11:32:15;33.47;;;22.83;;
7917;SDS011;4004;42.624;23.386;2022-12-07T11:34:50;35.80;;;22.77;;
7917;SDS011;4004;42.624;23.386;2022-12-07T11:37:27;31.73;;;23.33;;
7917;SDS011;4004;42.624;23.386;2022-12-07T11:39:59;36.77;;;23.97;;
7917;SDS011;4004;42.624;23.386;2022-12-07T11:42:29;31.63;;;23.03;;
7917;SDS011;4004;42.624;23.386;2022-12-07T11:45:11;36.40;;;22.70;;
7917;SDS011;4004;42.624;23.386;2022-12-07T11:47:45;42.97;;;22.63;;
7917;SDS011;4004;42.624;23.386;2022-12-07T11:50:23;46.33;;;22.63;;
7917;SDS011;4004;42.624;23.386;2022-12-07T11:52:54;34.93;;;20.77;;
7917;SDS011;4004;42.624;23.386;2022-12-07T11:55:26;38.87;;;21.67;;
7917;SDS011;4004;42.624;23.386;2022-12-07T11:58:08;33.07;;;22.67;;
7917;SDS011;4004;42.624;23.386;2022-12-07T12:00:46;44.33;;;23.20;;
7917;SDS011;4004;42.624;23.386;2022-12-07T12:03:17;41.90;;;23.30;;
7917;SDS011;4004;42.624;23.386;2022-12-07T12:05:55;35.87;;;23.00;;
7917;SDS011;4004;42.624;23.386;2022-12-07T12:08:24;40.00;;;22.70;;
7917;SDS011;4004;42.624;23.386;2022-12-07T12:10:58;40.63;;;22.57;;
7917;SDS011;4004;42.624;23.386;2022-12-07T12:16:38;39.60;;;21.90;;
7917;SDS011;4004;42.624;23.386;2022-12-07T12:19:19;42.20;;;21.27;;
7917;SDS011;4004;42.624;23.386;2022-12-07T12:21:54;30.17;;;21.47;;
7917;SDS011;4004;42.624;23.386;2022-12-07T12:24:26;29.30;;;20.67;;
7917;SDS011;4004;42.624;23.386;2022-12-07T12:26:56;30.50;;;22.67;;
7917;SDS011;4004;42.624;23.386;2022-12-07T12:29:31;32.27;;;20.90;;
7917;SDS011;4004;42.624;23.386;2022-12-07T12:32:04;38.47;;;21.50;;
7917;SDS011;4004;42.624;23.386;2022-12-07T12:34:39;32.47;;;20.43;;
7917;SDS011;4004;42.624;23.386;2022-12-07T12:55:16;32.80;;;20.20;;
7917;SDS011;4004;42.624;23.386;2022-12-07T12:57:48;37.03;;;21.60;;
7917;SDS011;4004;42.624;23.386;2022-12-07T13:03:53;34.07;;;19.07;;
7917;SDS011;4004;42.624;23.386;2022-12-07T13:06:31;38.37;;;20.70;;
7917;SDS011;4004;42.624;23.386;2022-12-07T13:09:03;38.47;;;20.87;;
7917;SDS011;4004;42.624;23.386;2022-12-07T13:11:31;29.77;;;20.13;;
7917;SDS011;4004;42.624;23.386;2022-12-07T13:17:08;39.63;;;20.47;;
7917;SDS011;4004;42.624;23.386;2022-12-07T13:22:37;29.40;;;18.50;;
7917;SDS011;4004;42.624;23.386;2022-12-07T13:25:09;28.70;;;17.20;;
7917;SDS011;4004;42.624;23.386;2022-12-07T13:27:39;25.33;;;16.27;;
7917;SDS011;4004;42.624;23.386;2022-12-07T13:30:12;25.67;;;15.80;;
7917;SDS011;4004;42.624;23.386;2022-12-07T13:32:41;21.67;;;13.73;;
7917;SDS011;4004;42.624;23.386;2022-12-07T13:35:28;28.60;;;15.60;;
7917;SDS011;4004;42.624;23.386;2022-12-07T13:37:57;22.57;;;13.67;;
7917;SDS011;4004;42.624;23.386;2022-12-07T13:40:24;26.43;;;15.07;;
7917;SDS011;4004;42.624;23.386;2022-12-07T13:42:56;26.30;;;15.63;;
7917;SDS011;4004;42.624;23.386;2022-12-07T13:45:26;25.97;;;15.97;;
7917;SDS011;4004;42.624;23.386;2022-12-07T13:48:08;26.50;;;15.77;;
7917;SDS011;4004;42.624;23.386;2022-12-07T13:50:40;28.13;;;15.67;;
7917;SDS011;4004;42.624;23.386;2022-12-07T13:53:10;28.87;;;16.63;;
7917;SDS011;4004;42.624;23.386;2022-12-07T13:55:44;27.63;;;17.57;;
7917;SDS011;4004;42.624;23.386;2022-12-07T13:58:11;31.27;;;16.30;;
7917;SDS011;4004;42.624;23.386;2022-12-07T14:00:40;28.87;;;17.40;;
7917;SDS011;4004;42.624;23.386;2022-12-07T14:03:22;32.97;;;17.50;;
7917;SDS011;4004;42.624;23.386;2022-12-07T14:06:03;26.47;;;17.43;;
7917;SDS011;4004;42.624;23.386;2022-12-07T14:08:32;31.27;;;16.87;;
7917;SDS011;4004;42.624;23.386;2022-12-07T14:10:59;28.30;;;15.37;;
7917;SDS011;4004;42.624;23.386;2022-12-07T14:13:28;18.67;;;13.80;;
7917;SDS011;4004;42.624;23.386;2022-12-07T14:16:00;19.00;;;12.63;;
7917;SDS011;4004;42.624;23.386;2022-12-07T14:18:29;22.60;;;13.13;;
7917;SDS011;4004;42.624;23.386;2022-12-07T14:21:02;38.63;;;16.37;;
7917;SDS011;4004;42.624;23.386;2022-12-07T14:23:30;32.40;;;18.80;;
7917;SDS011;4004;42.624;23.386;2022-12-07T14:26:04;31.20;;;17.70;;
7917;SDS011;4004;42.624;23.386;2022-12-07T14:28:33;29.97;;;17.80;;
7917;SDS011;4004;42.624;23.386;2022-12-07T14:31:04;30.00;;;18.57;;
7917;SDS011;4004;42.624;23.386;2022-12-07T14:33:37;27.33;;;17.20;;
7917;SDS011;4004;42.624;23.386;2022-12-07T14:36:04;24.03;;;16.17;;
7917;SDS011;4004;42.624;23.386;2022-12-07T14:38:31;30.67;;;17.13;;
7917;SDS011;4004;42.624;23.386;2022-12-07T14:40:58;32.33;;;17.97;;
7917;SDS011;4004;42.624;23.386;2022-12-07T14:43:45;34.97;;;18.27;;
7917;SDS011;4004;42.624;23.386;2022-12-07T14:46:13;38.57;;;19.27;;
7917;SDS011;4004;42.624;23.386;2022-12-07T14:48:40;29.77;;;16.43;;
7917;SDS011;4004;42.624;23.386;2022-12-07T14:51:07;33.97;;;17.17;;
7917;SDS011;4004;42.624;23.386;2022-12-07T14:53:38;33.33;;;16.27;;
7917;SDS011;4004;42.624;23.386;2022-12-07T14:56:07;28.07;;;17.10;;
7917;SDS011;4004;42.624;23.386;2022-12-07T14:58:34;44.80;;;18.23;;
7917;SDS011;4004;42.624;23.386;2022-12-07T15:01:01;39.77;;;18.67;;
7917;SDS011;4004;42.624;23.386;2022-12-07T15:03:29;33.73;;;20.60;;
7917;SDS011;4004;42.624;23.386;2022-12-07T15:05:56;35.13;;;17.93;;
7917;SDS011;4004;42.624;23.386;2022-12-07T15:08:23;45.73;;;20.63;;
7917;SDS011;4004;42.624;23.386;2022-12-07T15:10:50;45.53;;;22.73;;
7917;SDS011;4004;42.624;23.386;2022-12-07T15:13:17;54.80;;;26.33;;
7917;SDS011;4004;42.624;23.386;2022-12-07T15:16:01;47.93;;;23.50;;
7917;SDS011;4004;42.624;23.386;2022-12-07T15:18:29;52.77;;;23.23;;
7917;SDS011;4004;42.624;23.386;2022-12-07T15:20:56;44.53;;;22.40;;
7917;SDS011;4004;42.624;23.386;2022-12-07T15:23:23;55.87;;;23.77;;
7917;SDS011;4004;42.624;23.386;2022-12-07T15:25:49;50.67;;;23.10;;
7917;SDS011;4004;42.624;23.386;2022-12-07T15:28:16;44.80;;;22.80;;